Cumberland College, KY

08:11 AM EDT on Augusti 30, 2014 (GMT -0400)
Mackey Bend | Change Station
CLOSE
Current Station
Personal Weather Stations
Location: Barbourville, KY
Elevation: 1020 ft
Nearby Weather Stations

Elev 1020 ft 36.81 °N, 83.96 °W | Updated 12 seconds ago

Klart
Klart
65.8 °F
Feels Like 65.8 °F
N
0.0
Vind Växlande Vind from O/SO
Gusts 0.0 miles/tim

Idag
High -- | Low -- °F
--% Chance of Precip.
Yesterday
High -- | Low -- °F
Precip. -- tum
7:06 AM 8:07 PM
Första kvarteret, 21% visible
Lufttryck 30.10 tum
Sikt 10.0 miles
Molnigt Klart
Daggpunkt 66 °F
Luftfuktighet 99%
Rainfall 0.00 tum
Snow Depth Not available.
UV 0 out of 12
Pollen 9.90 out of 12
Air Quality Not available.
Flu Activity Not available.
METAR KLOZ 301153Z AUTO 00000KT 10SM CLR 22/19 A3014 RMK AO2 SLP193 70005 T02170189 10222 20206 53007

More Conditions Fewer Conditions

Lufttryck 30.10 tum
Sikt 10.0 miles
Molnigt Klart
Daggpunkt 66 °F
Luftfuktighet 99%
Rainfall 0.00 tum
Snow Depth Not available.
UV 0 out of 12
Pollen 9.90 out of 12
Air Quality Not available.
Flu Activity Not available.
METAR KLOZ 301153Z AUTO 00000KT 10SM CLR 22/19 A3014 RMK AO2 SLP193 70005 T02170189 10222 20206 53007

More Conditions Fewer Conditions

10-Day Weather Forecast

Almanac

Astronomi

Aug. 30, 2014 Rise Set
Actual Time 7:06 AM EDT 8:07 PM EDT
Civil Twilight 6:39 AM EDT 8:34 PM EDT
Nautical Twilight 6:07 AM EDT 9:05 PM EDT
Astronomical Twilight 5:35 AM EDT 9:38 PM EDT
Månen 11:44 AM EDT 10:50 PM EDT
Length Of Visible Light 13h 54m
Dagens längd
13h 01m
Tomorrow will be 2m 14s shorter.
Första kvarteret, 21% of the Moon is Illuminated
Idag
Första kvarteret
Sep 2
Första kvarteret
Sep 8
Fullmåne
Sep 15
Sista kvarteret
Sep 24
New

Today's Extremes

State Highs State Lows

Community

WunderPhotos

Upload Photos

1,748,500 photos uploaded!

WunderBlogs® & News

By Dr. Jeff Masters
Director of Meteorology, Weather Underground
By Kari Strenfel
Meteorologist, Weather Underground
By Christopher C. Burt
Weather Historian, Weather Underground
August 30, 2014
August 30, 2014
August 30, 2014

Nearby

Snödjup

Station Depth Elevation
No new snow has been reported.

Earthquake Activity

Stad Distance Mag. Time & Date
No recent earthquake activity has been reported nearby.
Minimum magnitude displayed is 2.5.

Coastal Water Temperatures

Plats Temperatur
No Stations Reporting

Nearby Weather Stations